createdAt,value
2018-06-11T00:00:13.246Z,0
2018-06-11T00:01:13.302Z,0
2018-06-11T00:02:13.236Z,0
2018-06-11T00:03:13.285Z,0
2018-06-11T00:04:12.971Z,0
2018-06-11T00:05:12.992Z,0
2018-06-11T00:06:13.216Z,0
2018-06-11T00:07:13.258Z,0
2018-06-11T00:08:13.240Z,0
2018-06-11T00:09:12.766Z,0
2018-06-11T00:10:12.740Z,0
2018-06-11T00:11:13.010Z,0
2018-06-11T00:12:12.971Z,0
2018-06-11T00:13:13.216Z,0
2018-06-11T00:14:12.925Z,0
2018-06-11T00:15:12.977Z,0
2018-06-11T00:16:12.684Z,0
2018-06-11T00:17:13.233Z,0
2018-06-11T00:18:12.665Z,0
2018-06-11T00:19:13.224Z,0
2018-06-11T00:20:12.909Z,0
2018-06-11T00:21:12.935Z,0
2018-06-11T00:22:13.160Z,0
2018-06-11T00:23:13.355Z,0
2018-06-11T00:24:12.675Z,0
2018-06-11T00:25:13.173Z,0
2018-06-11T00:26:12.896Z,0
2018-06-11T00:27:13.136Z,0
2018-06-11T00:28:13.194Z,0
2018-06-11T00:29:12.907Z,0
2018-06-11T00:30:12.946Z,0
2018-06-11T00:31:13.116Z,0
2018-06-11T00:32:13.185Z,0
2018-06-11T00:33:13.151Z,0
2018-06-11T00:34:13.120Z,0
2018-06-11T00:35:13.182Z,0
2018-06-11T00:36:13.104Z,0
2018-06-11T00:37:13.129Z,0
2018-06-11T00:38:13.106Z,0
2018-06-11T00:39:12.937Z,0
2018-06-11T00:40:12.866Z,0
2018-06-11T00:41:13.119Z,0
2018-06-11T00:42:13.088Z,0
2018-06-11T00:43:13.087Z,0
2018-06-11T00:44:13.104Z,0
2018-06-11T00:45:12.850Z,0
2018-06-11T00:46:12.866Z,0
2018-06-11T00:47:12.561Z,0
2018-06-11T00:48:12.839Z,0
2018-06-11T00:49:13.081Z,0
2018-06-11T00:50:13.097Z,0
2018-06-11T00:51:13.047Z,0
2018-06-11T00:52:12.849Z,0
2018-06-11T00:53:12.819Z,0
2018-06-11T00:54:12.832Z,0
2018-06-11T00:55:13.034Z,0
2018-06-11T00:56:12.301Z,0
2018-06-11T00:57:12.791Z,0
2018-06-11T00:58:12.295Z,0
2018-06-11T00:59:13.010Z,0
2018-06-11T01:00:13.050Z,0
2018-06-11T01:01:12.791Z,0
2018-06-11T01:02:13.063Z,0
2018-06-11T01:03:12.745Z,0
2018-06-11T01:04:12.552Z,0
2018-06-11T01:05:12.736Z,0
2018-06-11T01:06:12.806Z,0
2018-06-11T01:07:12.730Z,0
2018-06-11T01:08:13.041Z,0
2018-06-11T01:09:12.761Z,0
2018-06-11T01:10:12.510Z,0
2018-06-11T01:11:12.976Z,0
2018-06-11T01:12:12.981Z,0
2018-06-11T01:13:12.735Z,0
2018-06-11T01:14:12.742Z,0
2018-06-11T01:15:12.495Z,0
2018-06-11T01:16:12.464Z,0
2018-06-11T01:17:12.970Z,0
2018-06-11T01:18:12.688Z,0
2018-06-11T01:19:12.738Z,0
2018-06-11T01:20:12.441Z,0
2018-06-11T01:21:12.484Z,0
2018-06-11T01:22:12.450Z,0
2018-06-11T01:23:12.983Z,0
2018-06-11T01:24:12.685Z,0
2018-06-11T01:25:12.689Z,0
2018-06-11T01:26:12.703Z,0
2018-06-11T01:27:12.418Z,0
2018-06-11T01:28:12.928Z,0
2018-06-11T01:29:12.931Z,0
2018-06-11T01:30:12.951Z,0
2018-06-11T01:31:12.947Z,0
2018-06-11T01:32:12.946Z,0
2018-06-11T01:33:12.675Z,0
2018-06-11T01:34:12.369Z,0
2018-06-11T01:35:12.933Z,0
2018-06-11T01:36:12.648Z,0
2018-06-11T01:37:12.641Z,0
2018-06-11T01:38:12.394Z,0
2018-06-11T01:39:12.615Z,0
2018-06-11T01:40:12.916Z,0
2018-06-11T01:41:12.883Z,0
2018-06-11T01:42:12.892Z,0
2018-06-11T01:43:12.585Z,0
2018-06-11T01:44:12.855Z,0
2018-06-11T01:45:12.349Z,0
2018-06-11T01:46:12.620Z,0
2018-06-11T01:47:12.893Z,0
2018-06-11T01:48:12.336Z,0
2018-06-11T01:49:12.855Z,0
2018-06-11T01:50:12.612Z,0
2018-06-11T01:51:12.309Z,0
2018-06-11T01:52:12.588Z,0
2018-06-11T01:53:12.043Z,0
2018-06-11T01:54:12.587Z,0
2018-06-11T01:55:12.296Z,0
2018-06-11T01:56:12.595Z,0
2018-06-11T01:57:12.818Z,0
2018-06-11T01:58:12.832Z,0
2018-06-11T01:59:12.528Z,0
2018-06-11T02:00:12.795Z,0
2018-06-11T02:01:12.800Z,0
2018-06-11T02:02:12.816Z,0
2018-06-11T02:03:12.575Z,0
2018-06-11T02:04:12.782Z,0
2018-06-11T02:05:12.527Z,0
2018-06-11T02:06:12.751Z,0
2018-06-11T02:07:12.545Z,0
2018-06-11T02:08:12.773Z,0
2018-06-11T02:09:12.544Z,0
2018-06-11T02:10:12.504Z,0
2018-06-11T02:11:12.533Z,0
2018-06-11T02:12:12.221Z,0
2018-06-11T02:13:12.553Z,0
2018-06-11T02:14:12.474Z,0
2018-06-11T02:15:12.773Z,0
2018-06-11T02:16:12.723Z,0
2018-06-11T02:17:12.737Z,0
2018-06-11T02:18:12.489Z,0
2018-06-11T02:19:12.499Z,0
2018-06-11T02:20:12.198Z,0
2018-06-11T02:21:12.222Z,0
2018-06-11T02:22:12.428Z,0
2018-06-11T02:23:12.480Z,0
2018-06-11T02:24:12.692Z,0
2018-06-11T02:25:12.744Z,0
2018-06-11T02:26:12.175Z,0
2018-06-11T02:27:12.465Z,0
2018-06-11T02:28:12.151Z,0
2018-06-11T02:29:12.685Z,0
2018-06-11T02:30:12.677Z,0
2018-06-11T02:31:12.706Z,5
2018-06-11T02:32:12.693Z,5
2018-06-11T02:33:12.414Z,5
2018-06-11T02:34:12.399Z,5
2018-06-11T02:35:12.400Z,5
2018-06-11T02:36:12.459Z,5
2018-06-11T02:37:12.401Z,5
2018-06-11T02:38:12.696Z,5
2018-06-11T02:39:12.127Z,10
2018-06-11T02:40:12.401Z,10
2018-06-11T02:41:12.400Z,10
2018-06-11T02:42:11.862Z,10
2018-06-11T02:43:12.144Z,10
2018-06-11T02:44:12.591Z,10
2018-06-11T02:45:12.626Z,15
2018-06-11T02:46:12.342Z,15
2018-06-11T02:47:12.639Z,15
2018-06-11T02:48:12.377Z,15
2018-06-11T02:49:12.612Z,15
2018-06-11T02:50:12.601Z,20
2018-06-11T02:51:12.572Z,20
2018-06-11T02:52:12.607Z,20
2018-06-11T02:53:12.337Z,20
2018-06-11T02:54:12.352Z,25
2018-06-11T02:55:12.301Z,25
2018-06-11T02:56:12.334Z,25
2018-06-11T02:57:12.283Z,30
2018-06-11T02:58:12.602Z,30
2018-06-11T02:59:12.297Z,30
2018-06-11T03:00:12.326Z,35
2018-06-11T03:01:12.559Z,35
2018-06-11T03:02:12.567Z,40
2018-06-11T03:03:12.259Z,40
2018-06-11T03:04:12.273Z,45
2018-06-11T03:05:12.539Z,45
2018-06-11T03:06:12.306Z,45
2018-06-11T03:07:12.512Z,45
2018-06-11T03:08:12.548Z,40
2018-06-11T03:09:12.260Z,40
2018-06-11T03:10:12.045Z,45
2018-06-11T03:11:12.483Z,45
2018-06-11T03:12:12.523Z,45
2018-06-11T03:13:11.970Z,45
2018-06-11T03:14:12.267Z,45
2018-06-11T03:15:12.470Z,45
2018-06-11T03:16:12.533Z,45
2018-06-11T03:17:12.483Z,50
2018-06-11T03:18:12.499Z,50
2018-06-11T03:19:12.480Z,55
2018-06-11T03:20:12.217Z,55
2018-06-11T03:21:12.214Z,60
2018-06-11T03:22:12.492Z,65
2018-06-11T03:23:12.232Z,70
2018-06-11T03:24:12.251Z,70
2018-06-11T03:25:11.942Z,70
2018-06-11T03:26:12.164Z,75
2018-06-11T03:27:11.957Z,75
2018-06-11T03:28:12.185Z,80
2018-06-11T03:29:12.480Z,80
2018-06-11T03:30:11.671Z,80
2018-06-11T03:31:12.470Z,80
2018-06-11T03:32:11.936Z,85
2018-06-11T03:33:12.425Z,85
2018-06-11T03:34:12.439Z,85
2018-06-11T03:35:11.885Z,85
2018-06-11T03:36:11.640Z,90
2018-06-11T03:37:12.412Z,100
2018-06-11T03:38:12.426Z,110
2018-06-11T03:39:12.436Z,110
2018-06-11T03:40:12.406Z,115
2018-06-11T03:41:12.391Z,125
2018-06-11T03:42:12.108Z,135
2018-06-11T03:43:12.158Z,150
2018-06-11T03:44:12.125Z,155
2018-06-11T03:45:12.426Z,165
2018-06-11T03:46:12.114Z,165
2018-06-11T03:47:11.894Z,165
2018-06-11T03:48:12.356Z,165
2018-06-11T03:49:11.869Z,170
2018-06-11T03:50:11.864Z,170
2018-06-11T03:51:12.408Z,165
2018-06-11T03:52:12.389Z,165
2018-06-11T03:53:12.135Z,160
2018-06-11T03:54:12.090Z,160
2018-06-11T03:55:12.343Z,155
2018-06-11T03:56:12.372Z,135
2018-06-11T03:57:12.360Z,130
2018-06-11T03:58:12.333Z,130
2018-06-11T03:59:12.381Z,125
2018-06-11T04:00:12.090Z,125
2018-06-11T04:01:12.120Z,120
2018-06-11T04:02:12.071Z,115
2018-06-11T04:03:12.128Z,110
2018-06-11T04:04:11.801Z,105
2018-06-11T04:05:11.836Z,115
2018-06-11T04:06:11.813Z,110
2018-06-11T04:07:11.850Z,105
2018-06-11T04:08:12.343Z,100
2018-06-11T04:09:11.827Z,115
2018-06-11T04:10:12.060Z,135
2018-06-11T04:11:12.074Z,135
2018-06-11T04:12:12.334Z,145
2018-06-11T04:13:12.077Z,160
2018-06-11T04:14:12.092Z,165
2018-06-11T04:15:12.049Z,175
2018-06-11T04:16:12.095Z,185
2018-06-11T04:17:12.294Z,175
2018-06-11T04:18:12.075Z,160
2018-06-11T04:19:12.284Z,140
2018-06-11T04:20:11.829Z,125
2018-06-11T04:21:12.060Z,110
2018-06-11T04:22:12.072Z,105
2018-06-11T04:23:11.788Z,95
2018-06-11T04:24:12.064Z,85
2018-06-11T04:25:12.053Z,75
2018-06-11T04:26:12.033Z,70
2018-06-11T04:27:12.280Z,75
2018-06-11T04:28:12.068Z,75
2018-06-11T04:29:12.299Z,75
2018-06-11T04:30:11.819Z,70
2018-06-11T04:31:11.765Z,65
2018-06-11T04:32:12.256Z,70
2018-06-11T04:33:12.011Z,75
2018-06-11T04:34:12.320Z,80
2018-06-11T04:35:12.284Z,90
2018-06-11T04:36:11.806Z,100
2018-06-11T04:37:12.024Z,110
2018-06-11T04:38:12.294Z,120
2018-06-11T04:39:11.990Z,135
2018-06-11T04:40:12.274Z,155
2018-06-11T04:41:12.022Z,170
2018-06-11T04:42:12.034Z,185
2018-06-11T04:43:12.289Z,205
2018-06-11T04:44:12.258Z,235
2018-06-11T04:45:12.225Z,275
2018-06-11T04:46:12.232Z,305
2018-06-11T04:47:12.033Z,295
2018-06-11T04:48:12.012Z,300
2018-06-11T04:49:11.999Z,360
2018-06-11T04:50:11.766Z,250
2018-06-11T04:51:12.234Z,230
2018-06-11T04:52:12.034Z,215
2018-06-11T04:53:11.992Z,215
2018-06-11T04:54:12.282Z,215
2018-06-11T04:55:11.871Z,215
2018-06-11T04:56:11.989Z,210
2018-06-11T04:57:12.255Z,205
2018-06-11T04:58:12.025Z,200
2018-06-11T04:59:11.768Z,195
2018-06-11T05:00:12.243Z,185
2018-06-11T05:01:12.251Z,185
2018-06-11T05:02:11.750Z,185
2018-06-11T05:03:11.719Z,185
2018-06-11T05:04:12.259Z,185
2018-06-11T05:05:12.207Z,190
2018-06-11T05:06:12.007Z,195
2018-06-11T05:07:12.213Z,205
2018-06-11T05:08:12.364Z,220
2018-06-11T05:09:11.991Z,235
2018-06-11T05:10:11.895Z,250
2018-06-11T05:11:11.955Z,265
2018-06-11T05:12:11.965Z,295
2018-06-11T05:13:11.727Z,320
2018-06-11T05:14:12.284Z,345
2018-06-11T05:15:11.954Z,350
2018-06-11T05:16:11.982Z,350
2018-06-11T05:17:11.973Z,355
2018-06-11T05:18:12.253Z,370
2018-06-11T05:19:12.203Z,380
2018-06-11T05:20:12.081Z,395
2018-06-11T05:21:12.197Z,425
2018-06-11T05:22:12.248Z,430
2018-06-11T05:23:11.947Z,415
2018-06-11T05:24:12.250Z,375
2018-06-11T05:25:12.223Z,345
2018-06-11T05:26:11.980Z,335
2018-06-11T05:27:12.190Z,330
2018-06-11T05:28:12.217Z,340
2018-06-11T05:29:12.227Z,355
2018-06-11T05:30:12.241Z,385
2018-06-11T05:31:12.244Z,400
2018-06-11T05:32:11.959Z,390
2018-06-11T05:33:11.959Z,365
2018-06-11T05:34:11.686Z,350
2018-06-11T05:35:12.252Z,335
2018-06-11T05:36:11.962Z,325
2018-06-11T05:37:12.004Z,340
2018-06-11T05:38:12.264Z,370
2018-06-11T05:39:12.246Z,395
2018-06-11T05:40:12.206Z,410
2018-06-11T05:41:12.240Z,405
2018-06-11T05:42:11.988Z,385
2018-06-11T05:43:11.686Z,375
2018-06-11T05:44:11.704Z,350
2018-06-11T05:45:12.224Z,320
2018-06-11T05:46:11.997Z,300
2018-06-11T05:47:11.733Z,295
2018-06-11T05:48:12.297Z,345
2018-06-11T05:49:12.220Z,390
2018-06-11T05:50:12.212Z,445
2018-06-11T05:51:12.272Z,485
2018-06-11T05:52:12.211Z,525
2018-06-11T05:53:12.267Z,555
2018-06-11T05:54:12.219Z,640
2018-06-11T05:55:12.262Z,830
2018-06-11T05:56:12.200Z,1120
2018-06-11T05:57:12.247Z,705
2018-06-11T05:58:11.957Z,640
2018-06-11T05:59:11.754Z,570
2018-06-11T06:00:12.260Z,545
2018-06-11T06:01:12.288Z,525
2018-06-11T06:02:11.720Z,510
2018-06-11T06:03:11.966Z,530
2018-06-11T06:04:12.017Z,545
2018-06-11T06:05:11.746Z,550
2018-06-11T06:06:11.738Z,525
2018-06-11T06:07:11.781Z,500
2018-06-11T06:08:11.785Z,480
2018-06-11T06:09:12.030Z,445
2018-06-11T06:10:12.248Z,405
2018-06-11T06:11:12.033Z,375
2018-06-11T06:12:11.725Z,325
2018-06-11T06:13:12.296Z,250
2018-06-11T06:14:12.360Z,250
2018-06-11T06:15:12.076Z,310
2018-06-11T06:16:12.032Z,350
2018-06-11T06:17:12.297Z,350
2018-06-11T06:18:12.266Z,350
2018-06-11T06:19:12.032Z,400
2018-06-11T06:20:12.302Z,415
2018-06-11T06:21:12.031Z,395
2018-06-11T06:22:11.804Z,370
2018-06-11T06:23:12.025Z,350
2018-06-11T06:24:12.050Z,355
2018-06-11T06:25:11.760Z,370
2018-06-11T06:26:12.073Z,385
2018-06-11T06:27:12.321Z,420
2018-06-11T06:28:12.337Z,470
2018-06-11T06:29:12.713Z,515
2018-06-11T06:30:11.847Z,535
2018-06-11T06:31:12.278Z,540
2018-06-11T06:32:11.809Z,500
2018-06-11T06:33:12.055Z,445
2018-06-11T06:34:12.297Z,445
2018-06-11T06:35:12.034Z,470
2018-06-11T06:36:12.061Z,490
2018-06-11T06:37:11.805Z,540
2018-06-11T06:38:12.095Z,555
2018-06-11T06:39:12.313Z,560
2018-06-11T06:40:11.558Z,560
2018-06-11T06:41:12.036Z,500
2018-06-11T06:42:11.821Z,505
2018-06-11T06:43:12.046Z,575
2018-06-11T06:44:12.084Z,620
2018-06-11T06:45:12.095Z,660
2018-06-11T06:46:12.058Z,665
2018-06-11T06:47:11.848Z,660
2018-06-11T06:48:12.086Z,660
2018-06-11T06:49:12.346Z,655
2018-06-11T06:50:12.070Z,665
2018-06-11T06:51:12.733Z,685
2018-06-11T06:52:11.849Z,710
2018-06-11T06:53:12.103Z,705
2018-06-11T06:54:12.389Z,820
2018-06-11T06:55:12.077Z,800
2018-06-11T06:56:12.112Z,870
2018-06-11T06:57:12.124Z,895
2018-06-11T06:58:12.342Z,1010
2018-06-11T06:59:11.904Z,1235
2018-06-11T07:00:11.831Z,1415
2018-06-11T07:01:12.388Z,1640
2018-06-11T07:02:12.108Z,1285
2018-06-11T07:03:12.876Z,2075
2018-06-11T07:04:12.155Z,1970
2018-06-11T07:05:12.402Z,1910
2018-06-11T07:06:12.401Z,795
2018-06-11T07:07:12.403Z,830
2018-06-11T07:08:12.475Z,1290
2018-06-11T07:09:11.913Z,845
2018-06-11T07:10:12.235Z,710
2018-06-11T07:12:12.221Z,845
2018-06-11T07:13:12.425Z,775
2018-06-11T07:14:12.452Z,680
2018-06-11T07:15:12.203Z,810
2018-06-11T07:16:11.735Z,1915
2018-06-11T07:17:12.251Z,2095
2018-06-11T07:18:12.230Z,1865
2018-06-11T07:19:12.507Z,2005
2018-06-11T07:20:12.062Z,2060
2018-06-11T07:21:12.536Z,1595
2018-06-11T07:22:12.055Z,685
2018-06-11T07:24:12.544Z,350
2018-06-11T07:25:12.034Z,310
2018-06-11T07:26:12.588Z,295
2018-06-11T07:27:11.897Z,305
2018-06-11T07:28:12.579Z,310
2018-06-11T07:29:12.600Z,315
2018-06-11T07:30:25.070Z,335
2018-06-11T07:31:12.670Z,360
2018-06-11T07:32:12.609Z,385
2018-06-11T07:33:12.664Z,430
2018-06-11T07:34:12.361Z,490
2018-06-11T07:35:12.724Z,590
2018-06-11T07:36:12.370Z,690
2018-06-11T07:37:11.908Z,825
2018-06-11T07:38:12.638Z,1435
2018-06-11T07:39:12.454Z,1625
2018-06-11T07:40:12.178Z,810
2018-06-11T07:41:12.904Z,805
2018-06-11T07:42:12.428Z,1550
2018-06-11T07:43:12.428Z,750
2018-06-11T07:44:12.769Z,810
2018-06-11T07:45:12.474Z,1410
2018-06-11T07:46:12.751Z,2100
2018-06-11T07:47:12.712Z,1325
2018-06-11T07:48:13.103Z,1175
2018-06-11T07:49:12.509Z,2330
2018-06-11T07:50:12.000Z,2380
2018-06-11T07:51:12.537Z,2020
2018-06-11T07:52:12.233Z,645
2018-06-11T07:53:12.809Z,490
2018-06-11T07:54:12.541Z,425
2018-06-11T07:55:12.846Z,390
2018-06-11T07:56:12.320Z,390
2018-06-11T07:57:12.845Z,375
2018-06-11T07:58:12.834Z,380
2018-06-11T07:59:12.656Z,385
2018-06-11T08:00:38.688Z,410
2018-06-11T08:01:12.618Z,465
2018-06-11T08:02:12.889Z,535
2018-06-11T08:03:12.869Z,575
2018-06-11T08:04:12.655Z,975
2018-06-11T08:05:12.856Z,690
2018-06-11T08:06:12.204Z,470
2018-06-11T08:07:13.299Z,340
2018-06-11T08:08:12.959Z,300
2018-06-11T08:09:12.951Z,315
2018-06-11T08:10:12.691Z,370
2018-06-11T08:11:12.931Z,410
2018-06-11T08:12:12.425Z,450
2018-06-11T08:13:12.982Z,505
2018-06-11T08:14:12.479Z,575
2018-06-11T08:15:12.964Z,685
2018-06-11T08:16:12.212Z,2600
2018-06-11T08:17:12.498Z,2905
2018-06-11T08:18:12.272Z,3010
2018-06-11T08:19:12.460Z,1120
2018-06-11T08:20:12.498Z,2955
2018-06-11T08:21:12.730Z,2225
2018-06-11T08:22:12.793Z,1700
2018-06-11T08:23:12.734Z,1995
2018-06-11T08:24:13.208Z,755
2018-06-11T08:25:12.780Z,835
2018-06-11T08:26:12.812Z,555
2018-06-11T08:27:12.836Z,570
2018-06-11T08:28:13.098Z,595
2018-06-11T08:29:12.837Z,720
2018-06-11T08:30:12.816Z,1485
2018-06-11T08:31:13.085Z,2270
2018-06-11T08:32:12.351Z,1900
2018-06-11T08:33:12.857Z,2200
2018-06-11T08:34:13.165Z,1855
2018-06-11T08:35:12.614Z,2315
2018-06-11T08:36:13.152Z,1670
2018-06-11T08:37:12.863Z,1735
2018-06-11T08:38:12.923Z,1380
2018-06-11T08:39:12.641Z,1430
2018-06-11T08:40:13.190Z,2540
2018-06-11T08:41:12.953Z,1430
2018-06-11T08:42:13.220Z,1570
2018-06-11T08:43:13.071Z,1265
2018-06-11T08:44:13.247Z,1085
2018-06-11T08:45:13.032Z,1550
2018-06-11T08:46:12.935Z,925
2018-06-11T08:47:14.497Z,1505
2018-06-11T08:48:19.305Z,1140
2018-06-11T08:49:13.046Z,1585
2018-06-11T08:50:15.588Z,2215
2018-06-11T08:51:12.807Z,2225
2018-06-11T08:52:14.605Z,2295
2018-06-11T08:53:13.102Z,2325
2018-06-11T08:54:12.820Z,2235
2018-06-11T08:55:12.909Z,2210
2018-06-11T08:56:13.125Z,1835
2018-06-11T08:57:13.166Z,1210
2018-06-11T08:58:13.130Z,690
2018-06-11T08:59:13.419Z,735
2018-06-11T09:00:13.701Z,705
2018-06-11T09:01:12.937Z,650
2018-06-11T09:02:12.935Z,605
2018-06-11T09:03:13.232Z,530
2018-06-11T09:05:13.482Z,455
2018-06-11T09:06:13.259Z,405
2018-06-11T09:07:13.451Z,355
2018-06-11T09:08:13.281Z,330
2018-06-11T09:09:13.509Z,325
2018-06-11T09:10:13.013Z,365
2018-06-11T09:11:13.253Z,445
2018-06-11T09:12:13.544Z,510
2018-06-11T09:13:13.286Z,565
2018-06-11T09:14:13.337Z,580
2018-06-11T09:15:13.307Z,575
2018-06-11T09:16:12.812Z,580
2018-06-11T09:17:13.296Z,585
2018-06-11T09:18:14.333Z,595
2018-06-11T09:19:13.567Z,520
2018-06-11T09:20:13.380Z,455
2018-06-11T09:21:13.620Z,450
2018-06-11T09:22:13.359Z,500
2018-06-11T09:23:13.329Z,520
2018-06-11T09:24:13.348Z,520
2018-06-11T09:25:13.557Z,515
2018-06-11T09:26:13.410Z,510
2018-06-11T09:27:13.667Z,505
2018-06-11T09:28:13.825Z,525
2018-06-11T09:29:13.414Z,565
2018-06-11T09:30:13.120Z,570
2018-06-11T09:31:13.938Z,600
2018-06-11T09:32:13.684Z,660
2018-06-11T09:33:13.434Z,725
2018-06-11T09:34:13.437Z,700
2018-06-11T09:35:12.984Z,600
2018-06-11T09:36:13.810Z,540
2018-06-11T09:37:13.450Z,510
2018-06-11T09:38:13.324Z,500
2018-06-11T09:39:13.729Z,510
2018-06-11T09:40:13.477Z,510
2018-06-11T09:41:13.215Z,495
2018-06-11T09:42:13.500Z,490
2018-06-11T09:43:13.527Z,530
2018-06-11T09:44:14.143Z,610
2018-06-11T09:45:13.789Z,645
2018-06-11T09:46:13.724Z,635
2018-06-11T09:47:13.297Z,685
2018-06-11T09:48:13.497Z,730
2018-06-11T09:49:13.724Z,690
2018-06-11T09:50:13.493Z,720
2018-06-11T09:51:13.536Z,700
2018-06-11T09:52:13.225Z,675
2018-06-11T09:53:13.527Z,695
2018-06-11T09:54:13.272Z,635
2018-06-11T09:55:13.562Z,620
2018-06-11T09:56:13.557Z,625
2018-06-11T09:57:13.838Z,620
2018-06-11T09:58:13.782Z,705
2018-06-11T09:59:13.572Z,755
2018-06-11T10:00:13.560Z,670
2018-06-11T10:01:13.548Z,615
2018-06-11T10:02:13.807Z,585
2018-06-11T10:03:13.849Z,575
2018-06-11T10:04:13.294Z,560
2018-06-11T10:05:13.869Z,540
2018-06-11T10:06:13.575Z,570
2018-06-11T10:07:13.615Z,625
2018-06-11T10:08:13.347Z,625
2018-06-11T10:09:13.472Z,655
2018-06-11T10:10:13.635Z,695
2018-06-11T10:11:13.912Z,645
2018-06-11T10:12:13.968Z,635
2018-06-11T10:13:13.651Z,600
2018-06-11T10:14:13.617Z,560
2018-06-11T10:15:13.864Z,470
2018-06-11T10:16:13.384Z,430
2018-06-11T10:17:13.379Z,425
2018-06-11T10:18:13.921Z,445
2018-06-11T10:19:13.756Z,505
2018-06-11T10:20:13.696Z,510
2018-06-11T10:21:13.361Z,535
2018-06-11T10:22:13.659Z,530
2018-06-11T10:23:13.899Z,570
2018-06-11T10:24:13.413Z,620
2018-06-11T10:25:13.717Z,690
2018-06-11T10:26:13.657Z,725
2018-06-11T10:27:13.954Z,715
2018-06-11T10:28:13.687Z,710
2018-06-11T10:29:13.969Z,665
2018-06-11T10:30:13.708Z,645
2018-06-11T10:31:13.943Z,640
2018-06-11T10:32:13.790Z,620
2018-06-11T10:33:13.728Z,570
2018-06-11T10:34:13.476Z,550
2018-06-11T10:35:13.434Z,540
2018-06-11T10:36:13.993Z,515
2018-06-11T10:37:13.697Z,485
2018-06-11T10:38:13.787Z,475
2018-06-11T10:39:13.943Z,525
2018-06-11T10:40:14.030Z,595
2018-06-11T10:41:13.993Z,695
2018-06-11T10:42:13.850Z,690
2018-06-11T10:43:13.461Z,635
2018-06-11T10:44:13.788Z,500
2018-06-11T10:45:13.769Z,425
2018-06-11T10:46:13.565Z,420
2018-06-11T10:47:14.061Z,455
2018-06-11T10:48:14.012Z,425
2018-06-11T10:49:14.455Z,395
2018-06-11T10:50:13.788Z,425
2018-06-11T10:51:14.047Z,380
2018-06-11T10:52:13.537Z,350
2018-06-11T10:53:14.030Z,345
2018-06-11T10:54:13.797Z,350
2018-06-11T10:55:14.048Z,350
2018-06-11T10:56:13.606Z,360
2018-06-11T10:57:13.834Z,370
2018-06-11T10:58:13.881Z,395
2018-06-11T10:59:13.789Z,410
2018-06-11T11:00:14.058Z,400
2018-06-11T11:01:14.300Z,385
2018-06-11T11:02:13.867Z,380
2018-06-11T11:03:13.858Z,385
2018-06-11T11:04:13.811Z,405
2018-06-11T11:05:13.830Z,390
2018-06-11T11:06:13.815Z,375
2018-06-11T11:07:14.121Z,370
2018-06-11T11:08:13.851Z,370
2018-06-11T11:09:14.144Z,370
2018-06-11T11:10:13.847Z,410
2018-06-11T11:11:14.138Z,455
2018-06-11T11:12:13.855Z,455
2018-06-11T11:13:14.757Z,465
2018-06-11T11:14:13.852Z,490
2018-06-11T11:15:14.159Z,465
2018-06-11T11:16:14.151Z,410
2018-06-11T11:17:14.119Z,345
2018-06-11T11:18:13.909Z,295
2018-06-11T11:19:13.911Z,280
2018-06-11T11:20:13.886Z,275
2018-06-11T11:21:13.976Z,280
2018-06-11T11:22:13.612Z,290
2018-06-11T11:23:13.928Z,300
2018-06-11T11:24:13.658Z,305
2018-06-11T11:25:14.180Z,300
2018-06-11T11:26:13.884Z,285
2018-06-11T11:27:13.662Z,270
2018-06-11T11:28:14.224Z,260
2018-06-11T11:29:13.942Z,255
2018-06-11T11:30:13.940Z,255
2018-06-11T11:31:14.012Z,250
2018-06-11T11:32:13.941Z,240
2018-06-11T11:33:14.195Z,235
2018-06-11T11:34:13.908Z,235
2018-06-11T11:35:14.164Z,230
2018-06-11T11:36:13.961Z,230
2018-06-11T11:37:14.188Z,230
2018-06-11T11:38:14.003Z,225
2018-06-11T11:39:14.178Z,225
2018-06-11T11:40:14.272Z,225
2018-06-11T11:41:14.187Z,225
2018-06-11T11:42:13.675Z,225
2018-06-11T11:43:14.214Z,225
2018-06-11T11:44:13.957Z,225
2018-06-11T11:45:14.282Z,230
2018-06-11T11:46:14.153Z,235
2018-06-11T11:47:14.008Z,265
2018-06-11T11:48:14.207Z,255
2018-06-11T11:49:14.241Z,270
2018-06-11T11:50:14.436Z,270
2018-06-11T11:51:14.175Z,260
2018-06-11T11:52:14.244Z,255
2018-06-11T11:53:13.973Z,245
2018-06-11T11:54:13.988Z,245
2018-06-11T11:55:14.271Z,240
2018-06-11T11:56:14.237Z,245
2018-06-11T11:57:13.987Z,245
2018-06-11T11:58:14.241Z,235
2018-06-11T11:59:13.988Z,230
2018-06-11T12:00:13.681Z,225
2018-06-11T12:01:13.497Z,225
2018-06-11T12:02:14.201Z,220
2018-06-11T12:03:13.739Z,220
2018-06-11T12:04:14.266Z,220
2018-06-11T12:05:13.978Z,225
2018-06-11T12:06:13.988Z,230
2018-06-11T12:07:13.733Z,240
2018-06-11T12:08:14.261Z,245
2018-06-11T12:09:14.255Z,245
2018-06-11T12:10:14.225Z,240
2018-06-11T12:11:14.287Z,235
2018-06-11T12:12:13.735Z,225
2018-06-11T12:13:14.290Z,225
2018-06-11T12:14:14.229Z,220
2018-06-11T12:15:14.709Z,215
2018-06-11T12:16:13.720Z,210
2018-06-11T12:17:14.273Z,210
2018-06-11T12:18:14.477Z,205
2018-06-11T12:19:13.960Z,205
2018-06-11T12:20:14.296Z,200
2018-06-11T12:21:14.000Z,200
2018-06-11T12:22:13.977Z,200
2018-06-11T12:23:13.756Z,195
2018-06-11T12:24:14.005Z,195
2018-06-11T12:25:14.463Z,195
2018-06-11T12:26:14.039Z,195
2018-06-11T12:27:14.226Z,195
2018-06-11T12:28:14.008Z,195
2018-06-11T12:29:14.300Z,195
2018-06-11T12:30:14.316Z,195
2018-06-11T12:31:13.981Z,190
2018-06-11T12:32:14.045Z,190
2018-06-11T12:33:14.049Z,185
2018-06-11T12:34:13.754Z,185
2018-06-11T12:35:14.032Z,185
2018-06-11T12:36:14.031Z,185
2018-06-11T12:37:14.094Z,185
2018-06-11T12:38:13.989Z,185
2018-06-11T12:39:14.019Z,185
2018-06-11T12:40:14.036Z,185
2018-06-11T12:41:13.867Z,185
2018-06-11T12:42:14.249Z,185
2018-06-11T12:43:14.052Z,185
2018-06-11T12:44:13.765Z,185
2018-06-11T12:45:14.274Z,190
2018-06-11T12:46:14.293Z,190
2018-06-11T12:47:14.286Z,190
2018-06-11T12:48:14.328Z,190
2018-06-11T12:49:14.023Z,185
2018-06-11T12:50:14.065Z,190
2018-06-11T12:51:14.260Z,185
2018-06-11T12:52:14.281Z,185
2018-06-11T12:53:14.298Z,180
2018-06-11T12:54:14.069Z,180
2018-06-11T12:55:14.326Z,180
2018-06-11T12:56:14.296Z,175
2018-06-11T12:57:14.293Z,175
2018-06-11T12:58:14.350Z,180
2018-06-11T12:59:13.754Z,180
2018-06-11T13:00:14.330Z,180
2018-06-11T13:01:14.019Z,180
2018-06-11T13:02:14.043Z,180
2018-06-11T13:03:14.284Z,180
2018-06-11T13:04:14.077Z,180
2018-06-11T13:05:14.049Z,180
2018-06-11T13:06:13.801Z,180
2018-06-11T13:07:14.033Z,175
2018-06-11T13:08:14.089Z,175
2018-06-11T13:09:14.311Z,175
2018-06-11T13:10:14.313Z,175
2018-06-11T13:11:14.091Z,175
2018-06-11T13:12:14.311Z,175
2018-06-11T13:13:14.292Z,175
2018-06-11T13:14:14.087Z,175
2018-06-11T13:15:14.316Z,175
2018-06-11T13:16:14.034Z,175
2018-06-11T13:17:14.083Z,175
2018-06-11T13:18:13.777Z,175
2018-06-11T13:19:14.096Z,175
2018-06-11T13:20:13.782Z,175
2018-06-11T13:21:14.092Z,175
2018-06-11T13:22:13.862Z,175
2018-06-11T13:23:13.820Z,175
2018-06-11T13:24:14.084Z,175
2018-06-11T13:25:13.805Z,175
2018-06-11T13:26:14.077Z,175
2018-06-11T13:27:14.119Z,175
2018-06-11T13:28:14.063Z,175
2018-06-11T13:29:13.811Z,175
2018-06-11T13:30:14.040Z,175
2018-06-11T13:31:13.816Z,180
2018-06-11T13:32:14.301Z,180
2018-06-11T13:33:14.079Z,180
2018-06-11T13:34:13.785Z,180
2018-06-11T13:35:14.085Z,175
2018-06-11T13:36:14.048Z,175
2018-06-11T13:37:14.237Z,175
2018-06-11T13:38:14.074Z,175
2018-06-11T13:39:14.030Z,175
2018-06-11T13:40:13.797Z,175
2018-06-11T13:41:14.354Z,175
2018-06-11T13:42:14.091Z,175
2018-06-11T13:43:14.355Z,175
2018-06-11T13:44:14.110Z,175
2018-06-11T13:45:14.335Z,180
2018-06-11T13:46:14.274Z,180
2018-06-11T13:47:14.083Z,180
2018-06-11T13:48:14.294Z,180
2018-06-11T13:49:14.363Z,180
2018-06-11T13:50:14.546Z,180
2018-06-11T13:51:14.326Z,180
2018-06-11T13:52:13.863Z,175
2018-06-11T13:53:14.340Z,175
2018-06-11T13:54:13.870Z,175
2018-06-11T13:55:14.286Z,175
2018-06-11T13:56:14.093Z,175
2018-06-11T13:57:14.096Z,175
2018-06-11T13:58:14.100Z,175
2018-06-11T13:59:14.358Z,175
2018-06-11T14:00:14.072Z,175